sensor_id;sensor_type;location;lat;lon;timestamp;P1;durP1;ratioP1;P2;durP2;ratioP2
13560;SDS011;6852;51.686;5.314;2022-09-09T00:04:45;1.00;;;0.70;;
13560;SDS011;6852;51.686;5.314;2022-09-09T00:07:25;1.77;;;1.07;;
13560;SDS011;6852;51.686;5.314;2022-09-09T00:21:37;2.17;;;1.27;;
13560;SDS011;6852;51.686;5.314;2022-09-09T00:24:10;2.10;;;1.00;;
13560;SDS011;6852;51.686;5.314;2022-09-09T00:26:47;1.47;;;1.10;;
13560;SDS011;6852;51.686;5.314;2022-09-09T00:29:26;7.30;;;1.60;;
13560;SDS011;6852;51.686;5.314;2022-09-09T00:32:11;1.33;;;1.20;;
13560;SDS011;6852;51.686;5.314;2022-09-09T00:35:24;3.07;;;1.43;;
13560;SDS011;6852;51.686;5.314;2022-09-09T00:37:42;3.27;;;1.40;;
13560;SDS011;6852;51.686;5.314;2022-09-09T00:40:18;2.33;;;1.50;;
13560;SDS011;6852;51.686;5.314;2022-09-09T00:43:31;1.37;;;1.10;;
13560;SDS011;6852;51.686;5.314;2022-09-09T00:46:05;2.33;;;1.63;;
13560;SDS011;6852;51.686;5.314;2022-09-09T00:48:52;2.20;;;1.20;;
13560;SDS011;6852;51.686;5.314;2022-09-09T00:51:58;1.30;;;1.17;;
13560;SDS011;6852;51.686;5.314;2022-09-09T00:57:52;4.10;;;1.47;;
13560;SDS011;6852;51.686;5.314;2022-09-09T01:00:23;2.23;;;1.40;;
13560;SDS011;6852;51.686;5.314;2022-09-09T01:06:01;1.90;;;1.53;;
13560;SDS011;6852;51.686;5.314;2022-09-09T01:08:39;1.87;;;1.40;;
13560;SDS011;6852;51.686;5.314;2022-09-09T01:11:22;1.83;;;1.37;;
13560;SDS011;6852;51.686;5.314;2022-09-09T01:13:58;4.50;;;1.47;;
13560;SDS011;6852;51.686;5.314;2022-09-09T01:26:17;4.20;;;1.60;;
13560;SDS011;6852;51.686;5.314;2022-09-09T01:28:48;1.93;;;1.40;;
13560;SDS011;6852;51.686;5.314;2022-09-09T01:31:30;2.97;;;1.10;;
13560;SDS011;6852;51.686;5.314;2022-09-09T01:34:01;4.70;;;2.00;;
13560;SDS011;6852;51.686;5.314;2022-09-09T01:39:02;3.13;;;1.07;;
13560;SDS011;6852;51.686;5.314;2022-09-09T01:41:29;2.00;;;1.60;;
13560;SDS011;6852;51.686;5.314;2022-09-09T01:44:00;1.57;;;1.17;;
13560;SDS011;6852;51.686;5.314;2022-09-09T01:46:29;2.97;;;1.30;;
13560;SDS011;6852;51.686;5.314;2022-09-09T01:48:57;2.33;;;1.40;;
13560;SDS011;6852;51.686;5.314;2022-09-09T01:51:25;4.50;;;1.80;;
13560;SDS011;6852;51.686;5.314;2022-09-09T01:53:52;2.77;;;1.50;;
13560;SDS011;6852;51.686;5.314;2022-09-09T01:56:36;3.27;;;1.63;;
13560;SDS011;6852;51.686;5.314;2022-09-09T02:06:58;1.90;;;1.70;;
13560;SDS011;6852;51.686;5.314;2022-09-09T02:09:27;3.60;;;1.80;;
13560;SDS011;6852;51.686;5.314;2022-09-09T02:12:05;2.57;;;1.80;;
13560;SDS011;6852;51.686;5.314;2022-09-09T02:14:40;2.10;;;1.60;;
13560;SDS011;6852;51.686;5.314;2022-09-09T02:17:13;3.73;;;1.93;;
13560;SDS011;6852;51.686;5.314;2022-09-09T02:19:48;3.27;;;1.60;;
13560;SDS011;6852;51.686;5.314;2022-09-09T02:22:19;2.70;;;1.50;;
13560;SDS011;6852;51.686;5.314;2022-09-09T02:24:49;3.07;;;1.80;;
13560;SDS011;6852;51.686;5.314;2022-09-09T02:27:21;2.07;;;1.67;;
13560;SDS011;6852;51.686;5.314;2022-09-09T02:29:49;1.67;;;1.37;;
13560;SDS011;6852;51.686;5.314;2022-09-09T02:32:19;3.37;;;1.70;;
13560;SDS011;6852;51.686;5.314;2022-09-09T02:34:50;2.87;;;1.73;;
13560;SDS011;6852;51.686;5.314;2022-09-09T02:37:27;4.43;;;1.80;;
13560;SDS011;6852;51.686;5.314;2022-09-09T02:40:04;2.43;;;1.43;;
13560;SDS011;6852;51.686;5.314;2022-09-09T02:42:37;3.10;;;1.77;;
13560;SDS011;6852;51.686;5.314;2022-09-09T02:45:08;2.20;;;1.70;;
13560;SDS011;6852;51.686;5.314;2022-09-09T02:55:48;2.40;;;1.50;;
13560;SDS011;6852;51.686;5.314;2022-09-09T02:58:20;3.53;;;2.03;;
13560;SDS011;6852;51.686;5.314;2022-09-09T03:00:48;4.93;;;2.00;;
13560;SDS011;6852;51.686;5.314;2022-09-09T03:03:17;4.80;;;1.97;;
13560;SDS011;6852;51.686;5.314;2022-09-09T03:05:45;3.33;;;1.80;;
13560;SDS011;6852;51.686;5.314;2022-09-09T03:08:13;5.20;;;2.00;;
13560;SDS011;6852;51.686;5.314;2022-09-09T03:10:40;4.73;;;2.20;;
13560;SDS011;6852;51.686;5.314;2022-09-09T03:13:07;4.70;;;2.10;;
13560;SDS011;6852;51.686;5.314;2022-09-09T03:15:34;2.87;;;2.13;;
13560;SDS011;6852;51.686;5.314;2022-09-09T03:18:01;4.40;;;2.27;;
13560;SDS011;6852;51.686;5.314;2022-09-09T03:20:29;3.53;;;2.07;;
13560;SDS011;6852;51.686;5.314;2022-09-09T03:22:57;4.00;;;2.00;;
13560;SDS011;6852;51.686;5.314;2022-09-09T03:25:26;1.63;;;1.53;;
13560;SDS011;6852;51.686;5.314;2022-09-09T03:27:55;6.07;;;2.13;;
13560;SDS011;6852;51.686;5.314;2022-09-09T03:30:28;4.07;;;2.47;;
13560;SDS011;6852;51.686;5.314;2022-09-09T03:32:55;4.17;;;1.87;;
13560;SDS011;6852;51.686;5.314;2022-09-09T03:35:22;3.47;;;1.90;;
13560;SDS011;6852;51.686;5.314;2022-09-09T03:37:50;4.07;;;1.97;;
13560;SDS011;6852;51.686;5.314;2022-09-09T03:40:17;5.50;;;1.93;;
13560;SDS011;6852;51.686;5.314;2022-09-09T03:42:47;3.10;;;1.77;;
13560;SDS011;6852;51.686;5.314;2022-09-09T03:45:14;6.17;;;2.13;;
13560;SDS011;6852;51.686;5.314;2022-09-09T03:47:43;3.03;;;2.20;;
13560;SDS011;6852;51.686;5.314;2022-09-09T03:50:10;2.00;;;1.80;;
13560;SDS011;6852;51.686;5.314;2022-09-09T03:52:37;6.60;;;1.50;;
13560;SDS011;6852;51.686;5.314;2022-09-09T03:55:05;4.33;;;1.77;;
13560;SDS011;6852;51.686;5.314;2022-09-09T03:57:33;5.80;;;2.03;;
13560;SDS011;6852;51.686;5.314;2022-09-09T04:00:05;2.97;;;1.63;;
13560;SDS011;6852;51.686;5.314;2022-09-09T04:02:33;4.13;;;1.80;;
13560;SDS011;6852;51.686;5.314;2022-09-09T04:05:01;4.43;;;1.80;;
13560;SDS011;6852;51.686;5.314;2022-09-09T04:07:32;6.80;;;2.07;;
13560;SDS011;6852;51.686;5.314;2022-09-09T04:09:59;3.53;;;1.80;;
13560;SDS011;6852;51.686;5.314;2022-09-09T04:12:26;4.67;;;2.07;;
13560;SDS011;6852;51.686;5.314;2022-09-09T04:14:53;6.33;;;2.17;;
13560;SDS011;6852;51.686;5.314;2022-09-09T04:17:22;6.67;;;1.90;;
13560;SDS011;6852;51.686;5.314;2022-09-09T04:19:50;4.07;;;2.20;;
13560;SDS011;6852;51.686;5.314;2022-09-09T04:22:20;5.40;;;2.17;;
13560;SDS011;6852;51.686;5.314;2022-09-09T04:24:48;3.60;;;2.13;;
13560;SDS011;6852;51.686;5.314;2022-09-09T04:27:21;3.70;;;2.17;;
13560;SDS011;6852;51.686;5.314;2022-09-09T04:29:48;4.97;;;1.97;;
13560;SDS011;6852;51.686;5.314;2022-09-09T04:32:14;4.63;;;1.93;;
13560;SDS011;6852;51.686;5.314;2022-09-09T04:34:42;8.33;;;2.20;;
13560;SDS011;6852;51.686;5.314;2022-09-09T04:37:12;4.93;;;2.03;;
13560;SDS011;6852;51.686;5.314;2022-09-09T04:39:40;5.67;;;2.03;;
13560;SDS011;6852;51.686;5.314;2022-09-09T04:42:07;4.37;;;2.37;;
13560;SDS011;6852;51.686;5.314;2022-09-09T04:44:33;6.07;;;2.10;;
13560;SDS011;6852;51.686;5.314;2022-09-09T04:47:00;7.37;;;2.40;;
13560;SDS011;6852;51.686;5.314;2022-09-09T04:49:27;5.50;;;2.07;;
13560;SDS011;6852;51.686;5.314;2022-09-09T04:51:54;5.63;;;1.90;;
13560;SDS011;6852;51.686;5.314;2022-09-09T04:54:22;6.87;;;1.97;;
13560;SDS011;6852;51.686;5.314;2022-09-09T04:56:50;2.67;;;1.90;;
13560;SDS011;6852;51.686;5.314;2022-09-09T04:59:17;5.53;;;2.27;;
13560;SDS011;6852;51.686;5.314;2022-09-09T05:01:44;5.57;;;1.70;;
13560;SDS011;6852;51.686;5.314;2022-09-09T05:04:10;6.50;;;1.93;;
13560;SDS011;6852;51.686;5.314;2022-09-09T05:06:37;5.53;;;1.90;;
13560;SDS011;6852;51.686;5.314;2022-09-09T05:09:04;6.03;;;2.33;;
13560;SDS011;6852;51.686;5.314;2022-09-09T05:11:32;3.93;;;1.60;;
13560;SDS011;6852;51.686;5.314;2022-09-09T05:14:03;7.37;;;2.07;;
13560;SDS011;6852;51.686;5.314;2022-09-09T05:16:31;4.10;;;1.80;;
13560;SDS011;6852;51.686;5.314;2022-09-09T05:18:58;6.20;;;1.90;;
13560;SDS011;6852;51.686;5.314;2022-09-09T05:21:25;2.60;;;1.63;;
13560;SDS011;6852;51.686;5.314;2022-09-09T05:23:53;2.13;;;1.60;;
13560;SDS011;6852;51.686;5.314;2022-09-09T05:26:22;7.00;;;2.07;;
13560;SDS011;6852;51.686;5.314;2022-09-09T05:28:50;5.73;;;1.43;;
13560;SDS011;6852;51.686;5.314;2022-09-09T05:31:18;6.63;;;1.97;;
13560;SDS011;6852;51.686;5.314;2022-09-09T05:33:48;3.53;;;1.77;;
13560;SDS011;6852;51.686;5.314;2022-09-09T05:36:16;6.43;;;1.83;;
13560;SDS011;6852;51.686;5.314;2022-09-09T05:38:45;4.97;;;2.03;;
13560;SDS011;6852;51.686;5.314;2022-09-09T05:41:12;5.93;;;2.20;;
13560;SDS011;6852;51.686;5.314;2022-09-09T05:43:41;7.27;;;1.60;;
13560;SDS011;6852;51.686;5.314;2022-09-09T05:46:11;7.87;;;1.93;;
13560;SDS011;6852;51.686;5.314;2022-09-09T05:48:43;4.83;;;1.90;;
13560;SDS011;6852;51.686;5.314;2022-09-09T05:51:17;3.43;;;1.60;;
13560;SDS011;6852;51.686;5.314;2022-09-09T05:53:50;6.03;;;2.40;;
13560;SDS011;6852;51.686;5.314;2022-09-09T05:56:22;3.63;;;1.60;;
13560;SDS011;6852;51.686;5.314;2022-09-09T05:58:51;7.13;;;1.83;;
13560;SDS011;6852;51.686;5.314;2022-09-09T06:01:24;3.67;;;1.30;;
13560;SDS011;6852;51.686;5.314;2022-09-09T06:03:53;4.45;;;1.85;;
13560;SDS011;6852;51.686;5.314;2022-09-09T06:06:21;6.93;;;1.60;;
13560;SDS011;6852;51.686;5.314;2022-09-09T06:08:51;8.47;;;1.77;;
13560;SDS011;6852;51.686;5.314;2022-09-09T06:11:23;4.07;;;1.70;;
13560;SDS011;6852;51.686;5.314;2022-09-09T06:13:52;1.73;;;1.60;;
13560;SDS011;6852;51.686;5.314;2022-09-09T06:16:21;5.57;;;1.70;;
13560;SDS011;6852;51.686;5.314;2022-09-09T06:18:50;7.33;;;1.80;;
13560;SDS011;6852;51.686;5.314;2022-09-09T06:21:19;5.37;;;1.67;;
13560;SDS011;6852;51.686;5.314;2022-09-09T06:23:48;5.20;;;1.50;;
13560;SDS011;6852;51.686;5.314;2022-09-09T06:26:16;4.30;;;2.13;;
13560;SDS011;6852;51.686;5.314;2022-09-09T06:28:46;7.03;;;1.80;;
13560;SDS011;6852;51.686;5.314;2022-09-09T06:31:14;5.03;;;2.30;;
13560;SDS011;6852;51.686;5.314;2022-09-09T06:33:54;8.73;;;2.27;;
13560;SDS011;6852;51.686;5.314;2022-09-09T06:36:23;3.73;;;2.03;;
13560;SDS011;6852;51.686;5.314;2022-09-09T06:38:51;4.40;;;2.00;;
13560;SDS011;6852;51.686;5.314;2022-09-09T06:41:19;3.93;;;1.70;;
13560;SDS011;6852;51.686;5.314;2022-09-09T06:43:47;10.23;;;2.50;;
13560;SDS011;6852;51.686;5.314;2022-09-09T06:46:16;3.10;;;1.93;;
13560;SDS011;6852;51.686;5.314;2022-09-09T06:48:44;6.07;;;1.67;;
13560;SDS011;6852;51.686;5.314;2022-09-09T06:53:44;5.87;;;2.33;;
13560;SDS011;6852;51.686;5.314;2022-09-09T06:56:22;7.83;;;2.07;;
13560;SDS011;6852;51.686;5.314;2022-09-09T06:58:58;8.30;;;2.07;;
13560;SDS011;6852;51.686;5.314;2022-09-09T07:01:31;6.07;;;2.00;;
13560;SDS011;6852;51.686;5.314;2022-09-09T07:03:59;2.27;;;1.80;;
13560;SDS011;6852;51.686;5.314;2022-09-09T07:07:00;7.10;;;1.77;;
13560;SDS011;6852;51.686;5.314;2022-09-09T07:09:20;6.20;;;1.90;;
13560;SDS011;6852;51.686;5.314;2022-09-09T07:11:48;6.03;;;1.77;;
13560;SDS011;6852;51.686;5.314;2022-09-09T07:14:19;10.20;;;1.77;;
13560;SDS011;6852;51.686;5.314;2022-09-09T07:16:46;4.43;;;2.00;;
13560;SDS011;6852;51.686;5.314;2022-09-09T07:19:13;5.27;;;1.90;;
13560;SDS011;6852;51.686;5.314;2022-09-09T07:21:41;4.00;;;1.73;;
13560;SDS011;6852;51.686;5.314;2022-09-09T07:24:09;6.63;;;2.10;;
13560;SDS011;6852;51.686;5.314;2022-09-09T07:26:37;7.07;;;1.73;;
13560;SDS011;6852;51.686;5.314;2022-09-09T07:29:05;5.67;;;2.10;;
13560;SDS011;6852;51.686;5.314;2022-09-09T07:31:33;11.73;;;2.20;;
13560;SDS011;6852;51.686;5.314;2022-09-09T07:34:03;5.30;;;1.97;;
13560;SDS011;6852;51.686;5.314;2022-09-09T07:36:32;7.27;;;1.70;;
13560;SDS011;6852;51.686;5.314;2022-09-09T07:39:05;3.70;;;2.00;;
13560;SDS011;6852;51.686;5.314;2022-09-09T07:41:34;7.50;;;1.90;;
13560;SDS011;6852;51.686;5.314;2022-09-09T07:44:04;6.03;;;1.57;;
13560;SDS011;6852;51.686;5.314;2022-09-09T07:46:33;5.33;;;2.00;;
13560;SDS011;6852;51.686;5.314;2022-09-09T07:49:02;9.63;;;1.80;;
13560;SDS011;6852;51.686;5.314;2022-09-09T07:51:31;7.07;;;2.10;;
13560;SDS011;6852;51.686;5.314;2022-09-09T07:54:02;5.57;;;2.27;;
13560;SDS011;6852;51.686;5.314;2022-09-09T07:56:32;5.83;;;2.20;;
13560;SDS011;6852;51.686;5.314;2022-09-09T07:58:59;6.27;;;2.00;;
13560;SDS011;6852;51.686;5.314;2022-09-09T08:01:31;3.43;;;1.80;;
13560;SDS011;6852;51.686;5.314;2022-09-09T08:04:06;7.50;;;1.83;;
13560;SDS011;6852;51.686;5.314;2022-09-09T08:06:38;4.67;;;1.60;;
13560;SDS011;6852;51.686;5.314;2022-09-09T08:09:07;7.13;;;1.70;;
13560;SDS011;6852;51.686;5.314;2022-09-09T08:11:44;6.17;;;2.10;;
13560;SDS011;6852;51.686;5.314;2022-09-09T08:14:11;8.90;;;1.70;;
13560;SDS011;6852;51.686;5.314;2022-09-09T08:16:39;6.30;;;1.57;;
13560;SDS011;6852;51.686;5.314;2022-09-09T08:19:08;6.73;;;1.70;;
13560;SDS011;6852;51.686;5.314;2022-09-09T08:21:36;7.10;;;1.93;;
13560;SDS011;6852;51.686;5.314;2022-09-09T08:24:06;5.97;;;1.57;;
13560;SDS011;6852;51.686;5.314;2022-09-09T08:26:38;2.23;;;1.30;;
13560;SDS011;6852;51.686;5.314;2022-09-09T08:29:08;2.67;;;1.10;;
13560;SDS011;6852;51.686;5.314;2022-09-09T08:31:38;7.90;;;1.77;;
13560;SDS011;6852;51.686;5.314;2022-09-09T08:34:07;3.77;;;1.37;;
13560;SDS011;6852;51.686;5.314;2022-09-09T08:36:36;5.07;;;1.60;;
13560;SDS011;6852;51.686;5.314;2022-09-09T08:39:06;6.77;;;2.20;;
13560;SDS011;6852;51.686;5.314;2022-09-09T08:47:06;6.77;;;1.57;;
13560;SDS011;6852;51.686;5.314;2022-09-09T08:50:05;7.53;;;1.87;;
13560;SDS011;6852;51.686;5.314;2022-09-09T08:58:08;4.70;;;1.50;;
13560;SDS011;6852;51.686;5.314;2022-09-09T09:00:49;4.80;;;1.60;;
13560;SDS011;6852;51.686;5.314;2022-09-09T09:08:52;5.33;;;1.60;;
13560;SDS011;6852;51.686;5.314;2022-09-09T09:11:35;5.23;;;1.43;;
13560;SDS011;6852;51.686;5.314;2022-09-09T09:14:08;5.17;;;1.83;;
13560;SDS011;6852;51.686;5.314;2022-09-09T09:16:39;3.77;;;1.50;;
13560;SDS011;6852;51.686;5.314;2022-09-09T09:19:20;6.10;;;1.33;;
13560;SDS011;6852;51.686;5.314;2022-09-09T09:21:58;5.70;;;1.57;;
13560;SDS011;6852;51.686;5.314;2022-09-09T09:27:43;4.27;;;1.30;;
13560;SDS011;6852;51.686;5.314;2022-09-09T09:30:12;6.70;;;2.00;;
13560;SDS011;6852;51.686;5.314;2022-09-09T09:35:40;5.37;;;1.60;;
13560;SDS011;6852;51.686;5.314;2022-09-09T09:38:15;3.93;;;1.60;;
13560;SDS011;6852;51.686;5.314;2022-09-09T09:41:08;5.53;;;1.43;;
13560;SDS011;6852;51.686;5.314;2022-09-09T09:43:36;4.70;;;1.63;;
13560;SDS011;6852;51.686;5.314;2022-09-09T09:46:17;7.97;;;1.47;;
13560;SDS011;6852;51.686;5.314;2022-09-09T09:48:59;2.97;;;1.50;;
13560;SDS011;6852;51.686;5.314;2022-09-09T09:51:28;7.20;;;1.80;;
13560;SDS011;6852;51.686;5.314;2022-09-09T09:56:36;6.00;;;1.70;;
13560;SDS011;6852;51.686;5.314;2022-09-09T09:59:02;9.93;;;1.63;;
13560;SDS011;6852;51.686;5.314;2022-09-09T10:01:48;7.83;;;1.70;;
13560;SDS011;6852;51.686;5.314;2022-09-09T10:06:46;5.47;;;1.73;;
13560;SDS011;6852;51.686;5.314;2022-09-09T10:12:02;7.40;;;2.10;;
13560;SDS011;6852;51.686;5.314;2022-09-09T10:20:42;5.93;;;2.23;;
13560;SDS011;6852;51.686;5.314;2022-09-09T10:23:21;3.70;;;1.73;;
13560;SDS011;6852;51.686;5.314;2022-09-09T10:26:10;3.07;;;1.70;;
13560;SDS011;6852;51.686;5.314;2022-09-09T10:34:31;6.13;;;2.27;;
13560;SDS011;6852;51.686;5.314;2022-09-09T10:37:35;6.80;;;2.37;;
13560;SDS011;6852;51.686;5.314;2022-09-09T10:43:04;8.47;;;2.30;;
13560;SDS011;6852;51.686;5.314;2022-09-09T10:45:44;8.63;;;2.07;;
13560;SDS011;6852;51.686;5.314;2022-09-09T10:51:13;7.67;;;2.40;;
13560;SDS011;6852;51.686;5.314;2022-09-09T10:54:10;7.70;;;2.27;;
13560;SDS011;6852;51.686;5.314;2022-09-09T10:56:40;7.10;;;2.33;;
13560;SDS011;6852;51.686;5.314;2022-09-09T10:59:18;5.50;;;2.30;;
13560;SDS011;6852;51.686;5.314;2022-09-09T11:02:15;6.93;;;2.00;;
13560;SDS011;6852;51.686;5.314;2022-09-09T11:04:50;6.13;;;2.17;;
13560;SDS011;6852;51.686;5.314;2022-09-09T11:07:29;6.90;;;2.77;;
13560;SDS011;6852;51.686;5.314;2022-09-09T11:10:34;5.53;;;1.87;;
13560;SDS011;6852;51.686;5.314;2022-09-09T11:13:15;7.83;;;2.10;;
13560;SDS011;6852;51.686;5.314;2022-09-09T11:15:56;4.60;;;1.80;;
13560;SDS011;6852;51.686;5.314;2022-09-09T11:18:27;9.23;;;2.07;;
13560;SDS011;6852;51.686;5.314;2022-09-09T11:21:01;6.80;;;1.70;;
13560;SDS011;6852;51.686;5.314;2022-09-09T11:23:39;4.87;;;1.93;;
13560;SDS011;6852;51.686;5.314;2022-09-09T11:26:17;4.07;;;2.00;;
13560;SDS011;6852;51.686;5.314;2022-09-09T11:28:56;5.70;;;2.30;;
13560;SDS011;6852;51.686;5.314;2022-09-09T11:31:38;5.70;;;1.90;;
13560;SDS011;6852;51.686;5.314;2022-09-09T11:34:34;3.77;;;1.70;;
13560;SDS011;6852;51.686;5.314;2022-09-09T11:39:52;5.90;;;1.70;;
13560;SDS011;6852;51.686;5.314;2022-09-09T11:42:36;6.57;;;1.70;;
13560;SDS011;6852;51.686;5.314;2022-09-09T11:45:10;3.87;;;2.53;;
13560;SDS011;6852;51.686;5.314;2022-09-09T11:47:56;6.53;;;1.90;;
13560;SDS011;6852;51.686;5.314;2022-09-09T11:53:02;5.50;;;2.27;;
13560;SDS011;6852;51.686;5.314;2022-09-09T11:55:45;5.23;;;2.23;;
13560;SDS011;6852;51.686;5.314;2022-09-09T12:00:40;6.33;;;2.07;;
13560;SDS011;6852;51.686;5.314;2022-09-09T12:05:58;4.27;;;2.13;;
13560;SDS011;6852;51.686;5.314;2022-09-09T12:08:27;3.23;;;1.67;;
13560;SDS011;6852;51.686;5.314;2022-09-09T12:10:56;5.17;;;2.50;;
13560;SDS011;6852;51.686;5.314;2022-09-09T12:13:29;8.57;;;2.40;;
13560;SDS011;6852;51.686;5.314;2022-09-09T12:15:58;5.37;;;2.47;;
13560;SDS011;6852;51.686;5.314;2022-09-09T12:18:34;5.30;;;2.10;;
13560;SDS011;6852;51.686;5.314;2022-09-09T12:34:42;3.90;;;1.90;;
13560;SDS011;6852;51.686;5.314;2022-09-09T12:42:45;3.67;;;1.80;;
13560;SDS011;6852;51.686;5.314;2022-09-09T12:45:16;5.70;;;2.00;;
13560;SDS011;6852;51.686;5.314;2022-09-09T12:47:53;3.20;;;1.97;;
13560;SDS011;6852;51.686;5.314;2022-09-09T12:50:30;4.23;;;2.00;;
13560;SDS011;6852;51.686;5.314;2022-09-09T12:53:02;6.57;;;2.83;;
13560;SDS011;6852;51.686;5.314;2022-09-09T12:55:35;8.37;;;2.53;;
13560;SDS011;6852;51.686;5.314;2022-09-09T12:58:04;5.93;;;1.80;;
13560;SDS011;6852;51.686;5.314;2022-09-09T13:00:35;4.60;;;1.87;;
13560;SDS011;6852;51.686;5.314;2022-09-09T13:03:13;6.93;;;1.80;;
13560;SDS011;6852;51.686;5.314;2022-09-09T13:05:43;6.10;;;1.87;;
13560;SDS011;6852;51.686;5.314;2022-09-09T13:08:11;5.13;;;1.97;;
13560;SDS011;6852;51.686;5.314;2022-09-09T13:10:41;4.20;;;1.50;;
13560;SDS011;6852;51.686;5.314;2022-09-09T13:13:33;2.30;;;1.30;;
13560;SDS011;6852;51.686;5.314;2022-09-09T13:16:19;4.97;;;2.13;;
13560;SDS011;6852;51.686;5.314;2022-09-09T13:19:00;3.60;;;1.40;;
13560;SDS011;6852;51.686;5.314;2022-09-09T13:21:39;5.80;;;1.50;;
13560;SDS011;6852;51.686;5.314;2022-09-09T13:24:07;4.17;;;1.20;;
13560;SDS011;6852;51.686;5.314;2022-09-09T13:27:01;5.07;;;1.57;;
13560;SDS011;6852;51.686;5.314;2022-09-09T13:29:30;3.30;;;1.30;;
13560;SDS011;6852;51.686;5.314;2022-09-09T13:32:06;4.40;;;1.10;;
13560;SDS011;6852;51.686;5.314;2022-09-09T13:34:50;3.30;;;1.60;;
13560;SDS011;6852;51.686;5.314;2022-09-09T13:40:02;4.33;;;1.70;;
13560;SDS011;6852;51.686;5.314;2022-09-09T13:42:34;2.93;;;1.10;;
13560;SDS011;6852;51.686;5.314;2022-09-09T13:45:15;2.10;;;1.20;;
13560;SDS011;6852;51.686;5.314;2022-09-09T13:47:48;4.73;;;1.40;;
13560;SDS011;6852;51.686;5.314;2022-09-09T13:52:56;2.73;;;1.27;;
13560;SDS011;6852;51.686;5.314;2022-09-09T13:55:25;2.63;;;1.17;;
13560;SDS011;6852;51.686;5.314;2022-09-09T13:57:54;3.27;;;1.33;;
13560;SDS011;6852;51.686;5.314;2022-09-09T14:00:23;4.30;;;1.73;;
13560;SDS011;6852;51.686;5.314;2022-09-09T14:02:51;4.03;;;1.70;;
13560;SDS011;6852;51.686;5.314;2022-09-09T14:05:21;4.07;;;1.53;;
13560;SDS011;6852;51.686;5.314;2022-09-09T14:07:49;4.33;;;1.77;;
13560;SDS011;6852;51.686;5.314;2022-09-09T14:10:19;3.83;;;1.40;;
13560;SDS011;6852;51.686;5.314;2022-09-09T14:12:47;2.10;;;1.10;;
13560;SDS011;6852;51.686;5.314;2022-09-09T14:15:14;3.90;;;1.30;;
13560;SDS011;6852;51.686;5.314;2022-09-09T14:17:41;3.17;;;1.40;;
13560;SDS011;6852;51.686;5.314;2022-09-09T14:20:11;3.70;;;1.23;;
13560;SDS011;6852;51.686;5.314;2022-09-09T14:22:38;3.83;;;1.00;;
13560;SDS011;6852;51.686;5.314;2022-09-09T14:25:07;2.47;;;1.00;;
13560;SDS011;6852;51.686;5.314;2022-09-09T14:27:35;2.13;;;1.00;;
13560;SDS011;6852;51.686;5.314;2022-09-09T14:30:02;2.23;;;0.90;;
13560;SDS011;6852;51.686;5.314;2022-09-09T14:32:30;1.43;;;0.70;;
13560;SDS011;6852;51.686;5.314;2022-09-09T14:34:57;1.97;;;1.03;;
13560;SDS011;6852;51.686;5.314;2022-09-09T14:37:24;4.07;;;1.40;;
13560;SDS011;6852;51.686;5.314;2022-09-09T14:39:51;1.93;;;0.80;;
13560;SDS011;6852;51.686;5.314;2022-09-09T14:42:18;5.73;;;0.80;;
13560;SDS011;6852;51.686;5.314;2022-09-09T14:44:45;1.97;;;0.90;;
13560;SDS011;6852;51.686;5.314;2022-09-09T14:47:14;2.50;;;0.97;;
13560;SDS011;6852;51.686;5.314;2022-09-09T14:49:41;4.83;;;1.00;;
13560;SDS011;6852;51.686;5.314;2022-09-09T14:52:12;1.67;;;0.90;;
13560;SDS011;6852;51.686;5.314;2022-09-09T14:54:39;2.33;;;0.90;;
13560;SDS011;6852;51.686;5.314;2022-09-09T14:57:09;4.33;;;1.20;;
13560;SDS011;6852;51.686;5.314;2022-09-09T14:59:36;2.40;;;0.80;;
13560;SDS011;6852;51.686;5.314;2022-09-09T15:02:03;1.47;;;0.90;;
13560;SDS011;6852;51.686;5.314;2022-09-09T15:04:31;1.77;;;1.00;;
13560;SDS011;6852;51.686;5.314;2022-09-09T15:06:59;2.17;;;1.10;;
13560;SDS011;6852;51.686;5.314;2022-09-09T15:09:26;2.10;;;1.00;;
13560;SDS011;6852;51.686;5.314;2022-09-09T15:11:53;2.73;;;0.93;;
13560;SDS011;6852;51.686;5.314;2022-09-09T15:14:20;2.47;;;1.17;;
13560;SDS011;6852;51.686;5.314;2022-09-09T15:16:51;4.13;;;1.20;;
13560;SDS011;6852;51.686;5.314;2022-09-09T15:19:18;1.27;;;0.90;;
13560;SDS011;6852;51.686;5.314;2022-09-09T15:21:45;2.97;;;1.30;;
13560;SDS011;6852;51.686;5.314;2022-09-09T15:24:12;4.17;;;1.37;;
13560;SDS011;6852;51.686;5.314;2022-09-09T15:26:39;4.43;;;1.60;;
13560;SDS011;6852;51.686;5.314;2022-09-09T15:29:06;2.20;;;1.50;;
13560;SDS011;6852;51.686;5.314;2022-09-09T15:31:34;2.30;;;1.20;;
13560;SDS011;6852;51.686;5.314;2022-09-09T15:34:02;2.80;;;1.10;;
13560;SDS011;6852;51.686;5.314;2022-09-09T15:36:35;2.93;;;1.53;;
13560;SDS011;6852;51.686;5.314;2022-09-09T15:39:07;2.47;;;1.10;;
13560;SDS011;6852;51.686;5.314;2022-09-09T15:41:39;2.07;;;1.27;;
13560;SDS011;6852;51.686;5.314;2022-09-09T15:44:06;1.37;;;1.00;;
13560;SDS011;6852;51.686;5.314;2022-09-09T15:46:34;2.07;;;0.97;;
13560;SDS011;6852;51.686;5.314;2022-09-09T15:51:45;2.17;;;1.50;;
13560;SDS011;6852;51.686;5.314;2022-09-09T15:54:15;2.03;;;1.37;;
13560;SDS011;6852;51.686;5.314;2022-09-09T15:56:44;3.37;;;1.20;;
13560;SDS011;6852;51.686;5.314;2022-09-09T15:59:15;3.37;;;1.30;;
13560;SDS011;6852;51.686;5.314;2022-09-09T16:01:42;2.47;;;1.30;;
13560;SDS011;6852;51.686;5.314;2022-09-09T16:04:10;3.03;;;1.17;;
13560;SDS011;6852;51.686;5.314;2022-09-09T16:06:38;1.80;;;1.27;;
13560;SDS011;6852;51.686;5.314;2022-09-09T16:09:06;2.40;;;1.53;;
13560;SDS011;6852;51.686;5.314;2022-09-09T16:11:35;4.07;;;1.27;;
13560;SDS011;6852;51.686;5.314;2022-09-09T16:14:03;2.30;;;1.43;;
13560;SDS011;6852;51.686;5.314;2022-09-09T16:16:33;6.50;;;2.07;;
13560;SDS011;6852;51.686;5.314;2022-09-09T16:19:05;3.57;;;1.70;;
13560;SDS011;6852;51.686;5.314;2022-09-09T16:21:35;4.10;;;1.70;;
13560;SDS011;6852;51.686;5.314;2022-09-09T16:24:04;3.03;;;1.90;;
13560;SDS011;6852;51.686;5.314;2022-09-09T16:26:32;3.87;;;1.77;;
13560;SDS011;6852;51.686;5.314;2022-09-09T16:29:01;3.83;;;2.13;;
13560;SDS011;6852;51.686;5.314;2022-09-09T16:31:29;3.20;;;1.77;;
13560;SDS011;6852;51.686;5.314;2022-09-09T16:33:58;3.80;;;2.07;;
13560;SDS011;6852;51.686;5.314;2022-09-09T16:36:27;4.70;;;2.17;;
13560;SDS011;6852;51.686;5.314;2022-09-09T16:39:00;4.80;;;2.17;;
13560;SDS011;6852;51.686;5.314;2022-09-09T16:41:29;3.33;;;2.03;;
13560;SDS011;6852;51.686;5.314;2022-09-09T16:43:58;5.27;;;2.03;;
13560;SDS011;6852;51.686;5.314;2022-09-09T16:46:27;4.87;;;2.50;;
13560;SDS011;6852;51.686;5.314;2022-09-09T16:48:55;3.07;;;2.37;;
13560;SDS011;6852;51.686;5.314;2022-09-09T16:51:27;2.60;;;1.87;;
13560;SDS011;6852;51.686;5.314;2022-09-09T16:54:02;5.30;;;2.30;;
13560;SDS011;6852;51.686;5.314;2022-09-09T16:56:36;5.00;;;2.37;;
13560;SDS011;6852;51.686;5.314;2022-09-09T16:59:08;2.60;;;1.80;;
13560;SDS011;6852;51.686;5.314;2022-09-09T17:01:44;2.10;;;1.87;;
13560;SDS011;6852;51.686;5.314;2022-09-09T17:04:14;4.47;;;2.50;;
13560;SDS011;6852;51.686;5.314;2022-09-09T17:06:47;4.30;;;2.40;;
13560;SDS011;6852;51.686;5.314;2022-09-09T17:09:18;2.50;;;1.90;;
13560;SDS011;6852;51.686;5.314;2022-09-09T17:11:46;4.80;;;2.43;;
13560;SDS011;6852;51.686;5.314;2022-09-09T17:14:17;3.53;;;2.03;;
13560;SDS011;6852;51.686;5.314;2022-09-09T17:16:45;5.27;;;2.30;;
13560;SDS011;6852;51.686;5.314;2022-09-09T17:19:13;4.07;;;2.30;;
13560;SDS011;6852;51.686;5.314;2022-09-09T17:21:40;2.97;;;2.50;;
13560;SDS011;6852;51.686;5.314;2022-09-09T17:24:27;4.53;;;2.30;;
13560;SDS011;6852;51.686;5.314;2022-09-09T17:26:55;5.90;;;2.33;;
13560;SDS011;6852;51.686;5.314;2022-09-09T17:29:23;4.90;;;1.93;;
13560;SDS011;6852;51.686;5.314;2022-09-09T17:31:52;2.20;;;2.00;;
13560;SDS011;6852;51.686;5.314;2022-09-09T17:34:21;3.17;;;2.30;;
13560;SDS011;6852;51.686;5.314;2022-09-09T17:36:48;4.17;;;2.00;;
13560;SDS011;6852;51.686;5.314;2022-09-09T17:39:15;4.63;;;2.20;;
13560;SDS011;6852;51.686;5.314;2022-09-09T17:41:43;3.20;;;2.40;;
13560;SDS011;6852;51.686;5.314;2022-09-09T17:44:11;2.80;;;1.93;;
13560;SDS011;6852;51.686;5.314;2022-09-09T17:46:42;2.30;;;2.10;;